sensor_id;sensor_type;location;lat;lon;timestamp;P1;durP1;ratioP1;P2;durP2;ratioP2
41323;SDS011;27073;51.128;4.220;2022-11-20T00:01:19;28.65;;;20.65;;
41323;SDS011;27073;51.128;4.220;2022-11-20T00:03:46;27.92;;;20.92;;
41323;SDS011;27073;51.128;4.220;2022-11-20T00:06:14;29.48;;;21.33;;
41323;SDS011;27073;51.128;4.220;2022-11-20T00:08:42;31.03;;;21.93;;
41323;SDS011;27073;51.128;4.220;2022-11-20T00:11:26;24.15;;;20.35;;
41323;SDS011;27073;51.128;4.220;2022-11-20T00:13:54;32.47;;;21.92;;
41323;SDS011;27073;51.128;4.220;2022-11-20T00:16:23;26.52;;;20.42;;
41323;SDS011;27073;51.128;4.220;2022-11-20T00:18:50;26.00;;;20.80;;
41323;SDS011;27073;51.128;4.220;2022-11-20T00:21:17;26.60;;;21.52;;
41323;SDS011;27073;51.128;4.220;2022-11-20T00:23:45;26.25;;;19.77;;
41323;SDS011;27073;51.128;4.220;2022-11-20T00:26:12;26.77;;;21.35;;
41323;SDS011;27073;51.128;4.220;2022-11-20T00:28:39;27.45;;;21.40;;
41323;SDS011;27073;51.128;4.220;2022-11-20T00:31:10;29.17;;;20.83;;
41323;SDS011;27073;51.128;4.220;2022-11-20T00:33:37;27.63;;;21.35;;
41323;SDS011;27073;51.128;4.220;2022-11-20T00:36:03;32.20;;;21.67;;
41323;SDS011;27073;51.128;4.220;2022-11-20T00:38:31;32.95;;;23.15;;
41323;SDS011;27073;51.128;4.220;2022-11-20T00:40:58;32.25;;;22.20;;
41323;SDS011;27073;51.128;4.220;2022-11-20T00:43:26;32.55;;;22.75;;
41323;SDS011;27073;51.128;4.220;2022-11-20T00:46:02;29.90;;;21.10;;
41323;SDS011;27073;51.128;4.220;2022-11-20T00:48:32;30.52;;;21.45;;
41323;SDS011;27073;51.128;4.220;2022-11-20T00:50:58;31.38;;;21.30;;
41323;SDS011;27073;51.128;4.220;2022-11-20T00:53:24;28.67;;;21.95;;
41323;SDS011;27073;51.128;4.220;2022-11-20T00:55:57;27.17;;;21.63;;
41323;SDS011;27073;51.128;4.220;2022-11-20T00:58:31;27.25;;;21.48;;
41323;SDS011;27073;51.128;4.220;2022-11-20T01:01:10;29.38;;;21.67;;
41323;SDS011;27073;51.128;4.220;2022-11-20T01:03:39;24.88;;;21.05;;
41323;SDS011;27073;51.128;4.220;2022-11-20T01:06:11;26.77;;;20.35;;
41323;SDS011;27073;51.128;4.220;2022-11-20T01:08:38;28.67;;;21.85;;
41323;SDS011;27073;51.128;4.220;2022-11-20T01:11:06;28.02;;;21.85;;
41323;SDS011;27073;51.128;4.220;2022-11-20T01:13:34;26.65;;;20.25;;
41323;SDS011;27073;51.128;4.220;2022-11-20T01:18:41;23.88;;;20.67;;
41323;SDS011;27073;51.128;4.220;2022-11-20T01:21:10;26.55;;;20.83;;
41323;SDS011;27073;51.128;4.220;2022-11-20T01:23:38;25.63;;;20.90;;
41323;SDS011;27073;51.128;4.220;2022-11-20T01:26:06;27.98;;;20.60;;
41323;SDS011;27073;51.128;4.220;2022-11-20T01:28:35;23.98;;;20.20;;
41323;SDS011;27073;51.128;4.220;2022-11-20T01:31:01;26.08;;;21.02;;
41323;SDS011;27073;51.128;4.220;2022-11-20T01:33:35;24.10;;;19.30;;
41323;SDS011;27073;51.128;4.220;2022-11-20T01:36:04;27.88;;;20.00;;
41323;SDS011;27073;51.128;4.220;2022-11-20T01:38:30;24.77;;;20.52;;
41323;SDS011;27073;51.128;4.220;2022-11-20T01:40:56;24.23;;;20.27;;
41323;SDS011;27073;51.128;4.220;2022-11-20T01:43:22;27.30;;;21.30;;
41323;SDS011;27073;51.128;4.220;2022-11-20T01:45:56;25.88;;;20.85;;
41323;SDS011;27073;51.128;4.220;2022-11-20T01:51:47;27.38;;;21.20;;
41323;SDS011;27073;51.128;4.220;2022-11-20T01:54:23;25.80;;;21.75;;
41323;SDS011;27073;51.128;4.220;2022-11-20T01:56:53;30.60;;;22.02;;
41323;SDS011;27073;51.128;4.220;2022-11-20T01:59:22;33.85;;;22.67;;
41323;SDS011;27073;51.128;4.220;2022-11-20T02:01:50;30.15;;;23.02;;
41323;SDS011;27073;51.128;4.220;2022-11-20T02:04:16;31.35;;;22.10;;
41323;SDS011;27073;51.128;4.220;2022-11-20T02:06:50;27.77;;;21.45;;
41323;SDS011;27073;51.128;4.220;2022-11-20T02:09:18;36.10;;;22.73;;
41323;SDS011;27073;51.128;4.220;2022-11-20T02:11:43;27.38;;;21.05;;
41323;SDS011;27073;51.128;4.220;2022-11-20T02:14:09;31.50;;;23.30;;
41323;SDS011;27073;51.128;4.220;2022-11-20T02:16:46;29.80;;;22.65;;
41323;SDS011;27073;51.128;4.220;2022-11-20T02:19:16;29.50;;;23.08;;
41323;SDS011;27073;51.128;4.220;2022-11-20T02:21:54;30.17;;;22.42;;
41323;SDS011;27073;51.128;4.220;2022-11-20T02:24:38;31.08;;;23.67;;
41323;SDS011;27073;51.128;4.220;2022-11-20T02:27:12;30.48;;;23.05;;
41323;SDS011;27073;51.128;4.220;2022-11-20T02:34:56;32.75;;;23.75;;
41323;SDS011;27073;51.128;4.220;2022-11-20T02:37:22;32.38;;;23.25;;
41323;SDS011;27073;51.128;4.220;2022-11-20T02:39:53;35.05;;;25.02;;
41323;SDS011;27073;51.128;4.220;2022-11-20T02:42:18;36.88;;;24.23;;
41323;SDS011;27073;51.128;4.220;2022-11-20T02:44:44;32.42;;;25.38;;
41323;SDS011;27073;51.128;4.220;2022-11-20T02:47:10;39.17;;;25.80;;
41323;SDS011;27073;51.128;4.220;2022-11-20T02:49:36;38.03;;;26.42;;
41323;SDS011;27073;51.128;4.220;2022-11-20T02:52:01;35.72;;;27.92;;
41323;SDS011;27073;51.128;4.220;2022-11-20T02:54:27;46.17;;;30.27;;
41323;SDS011;27073;51.128;4.220;2022-11-20T02:56:53;36.72;;;27.98;;
41323;SDS011;27073;51.128;4.220;2022-11-20T02:59:19;43.00;;;29.40;;
41323;SDS011;27073;51.128;4.220;2022-11-20T03:01:44;40.08;;;28.90;;
41323;SDS011;27073;51.128;4.220;2022-11-20T03:04:10;37.72;;;27.15;;
41323;SDS011;27073;51.128;4.220;2022-11-20T03:06:36;39.05;;;27.27;;
41323;SDS011;27073;51.128;4.220;2022-11-20T03:09:02;36.35;;;26.27;;
41323;SDS011;27073;51.128;4.220;2022-11-20T03:11:28;39.40;;;27.83;;
41323;SDS011;27073;51.128;4.220;2022-11-20T03:13:54;43.78;;;29.83;;
41323;SDS011;27073;51.128;4.220;2022-11-20T03:16:20;41.63;;;30.25;;
41323;SDS011;27073;51.128;4.220;2022-11-20T03:18:47;45.08;;;30.42;;
41323;SDS011;27073;51.128;4.220;2022-11-20T03:21:14;45.55;;;30.85;;
41323;SDS011;27073;51.128;4.220;2022-11-20T03:23:40;45.00;;;31.25;;
41323;SDS011;27073;51.128;4.220;2022-11-20T03:26:10;49.17;;;31.95;;
41323;SDS011;27073;51.128;4.220;2022-11-20T03:28:38;46.05;;;31.58;;
41323;SDS011;27073;51.128;4.220;2022-11-20T03:31:05;44.13;;;31.92;;
41323;SDS011;27073;51.128;4.220;2022-11-20T03:33:35;44.75;;;30.27;;
41323;SDS011;27073;51.128;4.220;2022-11-20T03:36:02;41.60;;;30.17;;
41323;SDS011;27073;51.128;4.220;2022-11-20T03:38:32;44.45;;;31.98;;
41323;SDS011;27073;51.128;4.220;2022-11-20T03:41:02;46.50;;;32.47;;
41323;SDS011;27073;51.128;4.220;2022-11-20T03:43:32;46.47;;;32.97;;
41323;SDS011;27073;51.128;4.220;2022-11-20T03:45:58;46.10;;;30.75;;
41323;SDS011;27073;51.128;4.220;2022-11-20T03:48:25;45.63;;;30.95;;
41323;SDS011;27073;51.128;4.220;2022-11-20T03:50:51;45.03;;;31.95;;
41323;SDS011;27073;51.128;4.220;2022-11-20T03:53:18;48.38;;;32.05;;
41323;SDS011;27073;51.128;4.220;2022-11-20T03:55:45;45.90;;;31.15;;
41323;SDS011;27073;51.128;4.220;2022-11-20T04:00:41;46.25;;;31.63;;
41323;SDS011;27073;51.128;4.220;2022-11-20T04:03:06;48.17;;;31.20;;
41323;SDS011;27073;51.128;4.220;2022-11-20T04:05:33;44.25;;;30.65;;
41323;SDS011;27073;51.128;4.220;2022-11-20T04:07:59;49.80;;;32.22;;
41323;SDS011;27073;51.128;4.220;2022-11-20T04:10:25;50.38;;;33.22;;
41323;SDS011;27073;51.128;4.220;2022-11-20T04:12:51;49.10;;;32.42;;
41323;SDS011;27073;51.128;4.220;2022-11-20T04:15:17;47.10;;;33.65;;
41323;SDS011;27073;51.128;4.220;2022-11-20T04:17:43;44.17;;;29.92;;
41323;SDS011;27073;51.128;4.220;2022-11-20T04:20:09;48.10;;;31.75;;
41323;SDS011;27073;51.128;4.220;2022-11-20T04:22:34;43.17;;;31.92;;
41323;SDS011;27073;51.128;4.220;2022-11-20T04:25:00;44.75;;;31.05;;
41323;SDS011;27073;51.128;4.220;2022-11-20T04:27:26;44.05;;;31.80;;
41323;SDS011;27073;51.128;4.220;2022-11-20T04:29:52;42.08;;;30.40;;
41323;SDS011;27073;51.128;4.220;2022-11-20T04:32:17;45.08;;;31.70;;
41323;SDS011;27073;51.128;4.220;2022-11-20T04:34:43;46.20;;;31.38;;
41323;SDS011;27073;51.128;4.220;2022-11-20T04:37:09;45.22;;;32.33;;
41323;SDS011;27073;51.128;4.220;2022-11-20T04:39:34;44.53;;;30.52;;
41323;SDS011;27073;51.128;4.220;2022-11-20T04:42:00;44.80;;;31.30;;
41323;SDS011;27073;51.128;4.220;2022-11-20T04:44:44;44.28;;;29.85;;
41323;SDS011;27073;51.128;4.220;2022-11-20T04:47:10;51.13;;;32.80;;
41323;SDS011;27073;51.128;4.220;2022-11-20T04:49:36;49.60;;;32.97;;
41323;SDS011;27073;51.128;4.220;2022-11-20T04:52:02;48.70;;;32.80;;
41323;SDS011;27073;51.128;4.220;2022-11-20T04:54:27;45.20;;;31.77;;
41323;SDS011;27073;51.128;4.220;2022-11-20T04:56:53;47.55;;;33.53;;
41323;SDS011;27073;51.128;4.220;2022-11-20T04:59:19;44.42;;;32.20;;
41323;SDS011;27073;51.128;4.220;2022-11-20T05:01:45;41.25;;;30.27;;
41323;SDS011;27073;51.128;4.220;2022-11-20T05:04:10;43.80;;;31.52;;
41323;SDS011;27073;51.128;4.220;2022-11-20T05:06:36;42.58;;;31.05;;
41323;SDS011;27073;51.128;4.220;2022-11-20T05:09:02;43.00;;;30.77;;
41323;SDS011;27073;51.128;4.220;2022-11-20T05:11:28;44.63;;;31.48;;
41323;SDS011;27073;51.128;4.220;2022-11-20T05:13:54;44.20;;;31.80;;
41323;SDS011;27073;51.128;4.220;2022-11-20T05:16:20;46.42;;;32.38;;
41323;SDS011;27073;51.128;4.220;2022-11-20T05:18:48;44.80;;;32.17;;
41323;SDS011;27073;51.128;4.220;2022-11-20T05:21:15;45.33;;;32.47;;
41323;SDS011;27073;51.128;4.220;2022-11-20T05:23:42;44.38;;;32.13;;
41323;SDS011;27073;51.128;4.220;2022-11-20T05:26:11;46.67;;;31.33;;
41323;SDS011;27073;51.128;4.220;2022-11-20T05:28:42;37.50;;;29.48;;
41323;SDS011;27073;51.128;4.220;2022-11-20T05:31:09;42.63;;;30.10;;
41323;SDS011;27073;51.128;4.220;2022-11-20T05:33:39;42.03;;;30.13;;
41323;SDS011;27073;51.128;4.220;2022-11-20T05:36:05;42.55;;;30.65;;
41323;SDS011;27073;51.128;4.220;2022-11-20T05:38:31;44.28;;;31.67;;
41323;SDS011;27073;51.128;4.220;2022-11-20T05:41:30;42.80;;;29.42;;
41323;SDS011;27073;51.128;4.220;2022-11-20T05:43:49;39.97;;;28.73;;
41323;SDS011;27073;51.128;4.220;2022-11-20T05:46:17;41.53;;;29.88;;
41323;SDS011;27073;51.128;4.220;2022-11-20T05:48:44;42.42;;;29.85;;
41323;SDS011;27073;51.128;4.220;2022-11-20T05:51:11;43.17;;;30.13;;
41323;SDS011;27073;51.128;4.220;2022-11-20T05:53:40;39.08;;;27.73;;
41323;SDS011;27073;51.128;4.220;2022-11-20T05:56:07;43.97;;;29.45;;
41323;SDS011;27073;51.128;4.220;2022-11-20T05:58:38;44.58;;;30.77;;
41323;SDS011;27073;51.128;4.220;2022-11-20T06:01:08;43.28;;;31.33;;
41323;SDS011;27073;51.128;4.220;2022-11-20T06:03:36;39.28;;;27.85;;
41323;SDS011;27073;51.128;4.220;2022-11-20T06:06:03;41.13;;;28.65;;
41323;SDS011;27073;51.128;4.220;2022-11-20T06:08:30;42.70;;;29.95;;
41323;SDS011;27073;51.128;4.220;2022-11-20T06:10:56;39.72;;;30.00;;
41323;SDS011;27073;51.128;4.220;2022-11-20T06:13:22;42.78;;;29.83;;
41323;SDS011;27073;51.128;4.220;2022-11-20T06:15:51;42.05;;;30.25;;
41323;SDS011;27073;51.128;4.220;2022-11-20T06:18:18;39.80;;;28.90;;
41323;SDS011;27073;51.128;4.220;2022-11-20T06:20:44;45.50;;;31.17;;
41323;SDS011;27073;51.128;4.220;2022-11-20T06:23:11;44.35;;;30.55;;
41323;SDS011;27073;51.128;4.220;2022-11-20T06:25:40;42.85;;;29.77;;
41323;SDS011;27073;51.128;4.220;2022-11-20T06:28:07;40.63;;;28.65;;
41323;SDS011;27073;51.128;4.220;2022-11-20T06:30:34;42.78;;;30.23;;
41323;SDS011;27073;51.128;4.220;2022-11-20T06:33:00;40.80;;;29.40;;
41323;SDS011;27073;51.128;4.220;2022-11-20T06:35:26;41.75;;;30.23;;
41323;SDS011;27073;51.128;4.220;2022-11-20T06:37:52;41.42;;;29.95;;
41323;SDS011;27073;51.128;4.220;2022-11-20T06:40:17;42.85;;;29.08;;
41323;SDS011;27073;51.128;4.220;2022-11-20T06:42:43;38.42;;;29.38;;
41323;SDS011;27073;51.128;4.220;2022-11-20T06:45:09;45.63;;;29.70;;
41323;SDS011;27073;51.128;4.220;2022-11-20T06:47:35;43.67;;;30.10;;
41323;SDS011;27073;51.128;4.220;2022-11-20T06:50:01;37.72;;;27.70;;
41323;SDS011;27073;51.128;4.220;2022-11-20T06:52:26;45.85;;;31.30;;
41323;SDS011;27073;51.128;4.220;2022-11-20T06:54:52;45.83;;;30.10;;
41323;SDS011;27073;51.128;4.220;2022-11-20T06:57:18;44.60;;;30.02;;
41323;SDS011;27073;51.128;4.220;2022-11-20T06:59:44;45.45;;;31.10;;
41323;SDS011;27073;51.128;4.220;2022-11-20T07:02:10;50.15;;;30.85;;
41323;SDS011;27073;51.128;4.220;2022-11-20T07:04:37;44.35;;;30.38;;
41323;SDS011;27073;51.128;4.220;2022-11-20T07:07:03;48.67;;;29.35;;
41323;SDS011;27073;51.128;4.220;2022-11-20T07:09:29;46.70;;;31.27;;
41323;SDS011;27073;51.128;4.220;2022-11-20T07:11:54;49.90;;;31.98;;
41323;SDS011;27073;51.128;4.220;2022-11-20T07:14:20;50.92;;;31.88;;
41323;SDS011;27073;51.128;4.220;2022-11-20T07:16:46;43.50;;;30.60;;
41323;SDS011;27073;51.128;4.220;2022-11-20T07:19:11;46.70;;;30.77;;
41323;SDS011;27073;51.128;4.220;2022-11-20T07:21:37;51.95;;;31.98;;
41323;SDS011;27073;51.128;4.220;2022-11-20T07:24:03;57.17;;;32.75;;
41323;SDS011;27073;51.128;4.220;2022-11-20T07:26:29;53.58;;;34.00;;
41323;SDS011;27073;51.128;4.220;2022-11-20T07:28:54;56.03;;;33.30;;
41323;SDS011;27073;51.128;4.220;2022-11-20T07:31:20;54.97;;;33.17;;
41323;SDS011;27073;51.128;4.220;2022-11-20T07:33:46;51.00;;;31.17;;
41323;SDS011;27073;51.128;4.220;2022-11-20T07:36:12;55.55;;;34.38;;
41323;SDS011;27073;51.128;4.220;2022-11-20T07:38:38;53.15;;;32.65;;
41323;SDS011;27073;51.128;4.220;2022-11-20T07:41:04;54.58;;;32.13;;
41323;SDS011;27073;51.128;4.220;2022-11-20T07:43:30;54.97;;;33.83;;
41323;SDS011;27073;51.128;4.220;2022-11-20T07:45:56;54.72;;;32.65;;
41323;SDS011;27073;51.128;4.220;2022-11-20T07:48:23;54.50;;;32.83;;
41323;SDS011;27073;51.128;4.220;2022-11-20T07:50:52;55.92;;;34.88;;
41323;SDS011;27073;51.128;4.220;2022-11-20T07:53:19;61.13;;;35.03;;
41323;SDS011;27073;51.128;4.220;2022-11-20T07:55:46;54.65;;;33.33;;
41323;SDS011;27073;51.128;4.220;2022-11-20T07:58:13;53.45;;;31.10;;
41323;SDS011;27073;51.128;4.220;2022-11-20T08:00:39;61.03;;;32.85;;
41323;SDS011;27073;51.128;4.220;2022-11-20T08:03:05;56.33;;;32.92;;
41323;SDS011;27073;51.128;4.220;2022-11-20T08:05:31;59.25;;;33.80;;
41323;SDS011;27073;51.128;4.220;2022-11-20T08:07:58;56.78;;;33.95;;
41323;SDS011;27073;51.128;4.220;2022-11-20T08:10:23;57.25;;;33.30;;
41323;SDS011;27073;51.128;4.220;2022-11-20T08:12:50;49.63;;;31.38;;
41323;SDS011;27073;51.128;4.220;2022-11-20T08:15:36;52.95;;;32.38;;
41323;SDS011;27073;51.128;4.220;2022-11-20T08:18:04;53.88;;;32.97;;
41323;SDS011;27073;51.128;4.220;2022-11-20T08:20:32;50.97;;;32.05;;
41323;SDS011;27073;51.128;4.220;2022-11-20T08:22:59;52.30;;;32.85;;
41323;SDS011;27073;51.128;4.220;2022-11-20T08:25:26;50.17;;;31.08;;
41323;SDS011;27073;51.128;4.220;2022-11-20T08:27:53;52.65;;;33.10;;
41323;SDS011;27073;51.128;4.220;2022-11-20T08:30:18;55.25;;;32.58;;
41323;SDS011;27073;51.128;4.220;2022-11-20T08:32:44;50.47;;;32.15;;
41323;SDS011;27073;51.128;4.220;2022-11-20T08:35:10;53.45;;;31.50;;
41323;SDS011;27073;51.128;4.220;2022-11-20T08:37:35;53.05;;;33.25;;
41323;SDS011;27073;51.128;4.220;2022-11-20T08:40:03;53.40;;;31.50;;
41323;SDS011;27073;51.128;4.220;2022-11-20T08:42:29;54.30;;;33.75;;
41323;SDS011;27073;51.128;4.220;2022-11-20T08:44:55;51.83;;;32.80;;
41323;SDS011;27073;51.128;4.220;2022-11-20T08:47:21;54.50;;;33.20;;
41323;SDS011;27073;51.128;4.220;2022-11-20T08:49:46;50.78;;;32.28;;
41323;SDS011;27073;51.128;4.220;2022-11-20T08:52:12;53.25;;;31.25;;
41323;SDS011;27073;51.128;4.220;2022-11-20T08:54:38;53.40;;;31.42;;
41323;SDS011;27073;51.128;4.220;2022-11-20T08:57:03;62.83;;;32.97;;
41323;SDS011;27073;51.128;4.220;2022-11-20T08:59:29;51.10;;;31.30;;
41323;SDS011;27073;51.128;4.220;2022-11-20T09:01:56;51.63;;;31.92;;
41323;SDS011;27073;51.128;4.220;2022-11-20T09:04:21;54.90;;;32.58;;
41323;SDS011;27073;51.128;4.220;2022-11-20T09:06:47;50.15;;;31.27;;
41323;SDS011;27073;51.128;4.220;2022-11-20T09:09:16;48.40;;;30.30;;
41323;SDS011;27073;51.128;4.220;2022-11-20T09:11:44;52.78;;;32.58;;
41323;SDS011;27073;51.128;4.220;2022-11-20T09:14:10;50.75;;;30.73;;
41323;SDS011;27073;51.128;4.220;2022-11-20T09:16:35;52.17;;;31.23;;
41323;SDS011;27073;51.128;4.220;2022-11-20T09:19:01;53.63;;;30.45;;
41323;SDS011;27073;51.128;4.220;2022-11-20T09:21:28;53.85;;;31.88;;
41323;SDS011;27073;51.128;4.220;2022-11-20T09:23:54;57.10;;;31.92;;
41323;SDS011;27073;51.128;4.220;2022-11-20T09:26:19;56.20;;;32.58;;
41323;SDS011;27073;51.128;4.220;2022-11-20T09:28:45;54.20;;;32.15;;
41323;SDS011;27073;51.128;4.220;2022-11-20T09:31:17;52.92;;;32.28;;
41323;SDS011;27073;51.128;4.220;2022-11-20T09:33:49;60.65;;;30.70;;
41323;SDS011;27073;51.128;4.220;2022-11-20T09:36:15;58.42;;;33.28;;
41323;SDS011;27073;51.128;4.220;2022-11-20T09:38:42;61.67;;;34.22;;
41323;SDS011;27073;51.128;4.220;2022-11-20T09:41:19;62.17;;;33.60;;
41323;SDS011;27073;51.128;4.220;2022-11-20T09:44:12;56.13;;;32.53;;
41323;SDS011;27073;51.128;4.220;2022-11-20T09:47:07;54.97;;;31.02;;
41323;SDS011;27073;51.128;4.220;2022-11-20T09:55:11;64.65;;;33.08;;
41323;SDS011;27073;51.128;4.220;2022-11-20T09:57:40;57.85;;;32.10;;
41323;SDS011;27073;51.128;4.220;2022-11-20T10:06:01;59.75;;;32.55;;
41323;SDS011;27073;51.128;4.220;2022-11-20T10:08:39;53.67;;;30.85;;
41323;SDS011;27073;51.128;4.220;2022-11-20T10:14:12;59.95;;;31.33;;
41323;SDS011;27073;51.128;4.220;2022-11-20T10:17:20;51.55;;;30.08;;
41323;SDS011;27073;51.128;4.220;2022-11-20T10:20:16;52.67;;;30.98;;
41323;SDS011;27073;51.128;4.220;2022-11-20T10:25:48;54.83;;;29.40;;
41323;SDS011;27073;51.128;4.220;2022-11-20T10:34:00;52.47;;;30.08;;
41323;SDS011;27073;51.128;4.220;2022-11-20T10:36:36;56.17;;;31.45;;
41323;SDS011;27073;51.128;4.220;2022-11-20T10:39:25;54.50;;;30.05;;
41323;SDS011;27073;51.128;4.220;2022-11-20T10:42:04;57.20;;;30.38;;
41323;SDS011;27073;51.128;4.220;2022-11-20T10:44:36;57.90;;;32.00;;
41323;SDS011;27073;51.128;4.220;2022-11-20T10:47:24;55.28;;;32.45;;
41323;SDS011;27073;51.128;4.220;2022-11-20T10:49:53;55.17;;;30.75;;
41323;SDS011;27073;51.128;4.220;2022-11-20T10:55:27;51.28;;;30.55;;
41323;SDS011;27073;51.128;4.220;2022-11-20T10:58:16;53.85;;;29.85;;
41323;SDS011;27073;51.128;4.220;2022-11-20T11:00:50;55.88;;;30.92;;
41323;SDS011;27073;51.128;4.220;2022-11-20T11:03:28;56.33;;;30.80;;
41323;SDS011;27073;51.128;4.220;2022-11-20T11:08:39;49.97;;;28.05;;
41323;SDS011;27073;51.128;4.220;2022-11-20T11:11:21;45.92;;;28.15;;
41323;SDS011;27073;51.128;4.220;2022-11-20T11:14:03;45.72;;;25.63;;
41323;SDS011;27073;51.128;4.220;2022-11-20T11:16:40;49.47;;;26.35;;
41323;SDS011;27073;51.128;4.220;2022-11-20T11:19:20;39.50;;;24.63;;
41323;SDS011;27073;51.128;4.220;2022-11-20T11:21:46;45.33;;;27.52;;
41323;SDS011;27073;51.128;4.220;2022-11-20T11:24:19;44.00;;;26.40;;
41323;SDS011;27073;51.128;4.220;2022-11-20T11:26:54;46.13;;;26.35;;
41323;SDS011;27073;51.128;4.220;2022-11-20T11:29:25;45.28;;;25.15;;
41323;SDS011;27073;51.128;4.220;2022-11-20T11:32:04;41.53;;;24.98;;
41323;SDS011;27073;51.128;4.220;2022-11-20T11:34:36;37.92;;;23.13;;
41323;SDS011;27073;51.128;4.220;2022-11-20T11:37:02;36.97;;;22.70;;
41323;SDS011;27073;51.128;4.220;2022-11-20T11:39:30;34.33;;;21.95;;
41323;SDS011;27073;51.128;4.220;2022-11-20T11:41:58;37.33;;;22.35;;
41323;SDS011;27073;51.128;4.220;2022-11-20T11:44:30;33.40;;;19.73;;
41323;SDS011;27073;51.128;4.220;2022-11-20T12:03:32;8.60;;;5.45;;
41323;SDS011;27073;51.128;4.220;2022-11-20T12:06:04;9.93;;;5.85;;
41323;SDS011;27073;51.128;4.220;2022-11-20T12:16:21;7.93;;;3.78;;
41323;SDS011;27073;51.128;4.220;2022-11-20T12:18:48;7.82;;;3.10;;
41323;SDS011;27073;51.128;4.220;2022-11-20T12:34:51;6.72;;;2.65;;
41323;SDS011;27073;51.128;4.220;2022-11-20T12:37:48;6.32;;;2.42;;
41323;SDS011;27073;51.128;4.220;2022-11-20T12:46:14;11.98;;;3.60;;
41323;SDS011;27073;51.128;4.220;2022-11-20T12:51:36;8.70;;;3.60;;
41323;SDS011;27073;51.128;4.220;2022-11-20T13:00:16;7.13;;;4.00;;
41323;SDS011;27073;51.128;4.220;2022-11-20T13:05:41;8.98;;;4.43;;
41323;SDS011;27073;51.128;4.220;2022-11-20T13:08:13;9.20;;;3.92;;
41323;SDS011;27073;51.128;4.220;2022-11-20T13:10:52;11.18;;;4.50;;
41323;SDS011;27073;51.128;4.220;2022-11-20T13:16:22;7.97;;;4.00;;
41323;SDS011;27073;51.128;4.220;2022-11-20T13:18:55;12.45;;;4.32;;
41323;SDS011;27073;51.128;4.220;2022-11-20T13:21:22;7.68;;;4.22;;
41323;SDS011;27073;51.128;4.220;2022-11-20T13:24:19;9.30;;;4.97;;
41323;SDS011;27073;51.128;4.220;2022-11-20T13:26:58;7.13;;;3.95;;
41323;SDS011;27073;51.128;4.220;2022-11-20T13:29:25;4.68;;;3.08;;
41323;SDS011;27073;51.128;4.220;2022-11-20T13:32:00;7.63;;;4.32;;
41323;SDS011;27073;51.128;4.220;2022-11-20T13:34:52;7.15;;;4.32;;
41323;SDS011;27073;51.128;4.220;2022-11-20T13:37:38;12.40;;;4.50;;
41323;SDS011;27073;51.128;4.220;2022-11-20T13:40:19;8.85;;;4.28;;
41323;SDS011;27073;51.128;4.220;2022-11-20T13:46:01;13.98;;;5.28;;
41323;SDS011;27073;51.128;4.220;2022-11-20T13:48:32;9.45;;;5.20;;
41323;SDS011;27073;51.128;4.220;2022-11-20T13:58:43;9.00;;;4.97;;
41323;SDS011;27073;51.128;4.220;2022-11-20T14:01:29;9.18;;;4.53;;
41323;SDS011;27073;51.128;4.220;2022-11-20T14:03:56;6.80;;;4.18;;
41323;SDS011;27073;51.128;4.220;2022-11-20T14:08:52;6.75;;;4.50;;
41323;SDS011;27073;51.128;4.220;2022-11-20T14:11:19;6.45;;;3.50;;
41323;SDS011;27073;51.128;4.220;2022-11-20T14:13:51;5.47;;;3.50;;
41323;SDS011;27073;51.128;4.220;2022-11-20T14:16:21;5.95;;;4.50;;
41323;SDS011;27073;51.128;4.220;2022-11-20T14:18:47;9.02;;;5.07;;
41323;SDS011;27073;51.128;4.220;2022-11-20T14:21:27;5.25;;;4.07;;
41323;SDS011;27073;51.128;4.220;2022-11-20T14:24:04;5.80;;;3.33;;
41323;SDS011;27073;51.128;4.220;2022-11-20T14:26:31;5.63;;;3.17;;
41323;SDS011;27073;51.128;4.220;2022-11-20T14:28:57;5.03;;;3.15;;
41323;SDS011;27073;51.128;4.220;2022-11-20T14:31:25;6.43;;;3.53;;
41323;SDS011;27073;51.128;4.220;2022-11-20T14:33:53;7.55;;;4.25;;
41323;SDS011;27073;51.128;4.220;2022-11-20T14:36:21;3.38;;;2.47;;
41323;SDS011;27073;51.128;4.220;2022-11-20T14:38:49;5.80;;;3.10;;
41323;SDS011;27073;51.128;4.220;2022-11-20T14:41:16;5.13;;;3.42;;
41323;SDS011;27073;51.128;4.220;2022-11-20T14:43:49;5.05;;;2.95;;
41323;SDS011;27073;51.128;4.220;2022-11-20T14:46:20;4.38;;;3.78;;
41323;SDS011;27073;51.128;4.220;2022-11-20T14:48:47;4.93;;;4.05;;
41323;SDS011;27073;51.128;4.220;2022-11-20T14:51:28;6.85;;;5.18;;
41323;SDS011;27073;51.128;4.220;2022-11-20T14:54:07;4.88;;;3.72;;
41323;SDS011;27073;51.128;4.220;2022-11-20T14:56:40;7.10;;;4.80;;
41323;SDS011;27073;51.128;4.220;2022-11-20T14:59:07;5.63;;;4.18;;
41323;SDS011;27073;51.128;4.220;2022-11-20T15:01:34;4.57;;;4.00;;
41323;SDS011;27073;51.128;4.220;2022-11-20T15:04:02;6.40;;;5.18;;
41323;SDS011;27073;51.128;4.220;2022-11-20T15:06:32;7.78;;;4.50;;
41323;SDS011;27073;51.128;4.220;2022-11-20T15:08:58;5.97;;;5.00;;
41323;SDS011;27073;51.128;4.220;2022-11-20T15:11:28;7.90;;;5.03;;
41323;SDS011;27073;51.128;4.220;2022-11-20T15:13:56;7.32;;;4.57;;
41323;SDS011;27073;51.128;4.220;2022-11-20T15:16:22;5.85;;;4.57;;
41323;SDS011;27073;51.128;4.220;2022-11-20T15:18:49;6.47;;;4.82;;
41323;SDS011;27073;51.128;4.220;2022-11-20T15:21:17;7.78;;;5.07;;
41323;SDS011;27073;51.128;4.220;2022-11-20T15:23:44;7.18;;;5.07;;
41323;SDS011;27073;51.128;4.220;2022-11-20T15:26:11;5.57;;;4.22;;
41323;SDS011;27073;51.128;4.220;2022-11-20T15:28:44;5.50;;;4.50;;
41323;SDS011;27073;51.128;4.220;2022-11-20T15:31:13;5.38;;;4.25;;
41323;SDS011;27073;51.128;4.220;2022-11-20T15:33:42;6.22;;;4.53;;
41323;SDS011;27073;51.128;4.220;2022-11-20T15:36:08;8.43;;;4.95;;
41323;SDS011;27073;51.128;4.220;2022-11-20T15:38:35;9.00;;;5.55;;
41323;SDS011;27073;51.128;4.220;2022-11-20T15:41:00;8.10;;;5.63;;
41323;SDS011;27073;51.128;4.220;2022-11-20T15:43:26;7.40;;;5.20;;
41323;SDS011;27073;51.128;4.220;2022-11-20T15:48:27;9.02;;;5.05;;
41323;SDS011;27073;51.128;4.220;2022-11-20T15:50:58;10.10;;;5.10;;
41323;SDS011;27073;51.128;4.220;2022-11-20T15:53:28;10.25;;;4.40;;
41323;SDS011;27073;51.128;4.220;2022-11-20T15:55:54;10.60;;;4.70;;
41323;SDS011;27073;51.128;4.220;2022-11-20T15:58:20;9.25;;;3.97;;
41323;SDS011;27073;51.128;4.220;2022-11-20T16:00:48;10.55;;;3.92;;
41323;SDS011;27073;51.128;4.220;2022-11-20T16:03:14;13.20;;;5.07;;
41323;SDS011;27073;51.128;4.220;2022-11-20T16:05:41;11.80;;;4.55;;
41323;SDS011;27073;51.128;4.220;2022-11-20T16:08:07;14.02;;;4.43;;
41323;SDS011;27073;51.128;4.220;2022-11-20T16:10:33;10.35;;;3.72;;
41323;SDS011;27073;51.128;4.220;2022-11-20T16:12:58;13.25;;;4.25;;
41323;SDS011;27073;51.128;4.220;2022-11-20T16:15:44;18.10;;;4.63;;
41323;SDS011;27073;51.128;4.220;2022-11-20T16:18:18;21.42;;;4.70;;
41323;SDS011;27073;51.128;4.220;2022-11-20T16:20:45;13.80;;;3.20;;
41323;SDS011;27073;51.128;4.220;2022-11-20T16:23:13;19.73;;;5.20;;
41323;SDS011;27073;51.128;4.220;2022-11-20T16:25:40;14.75;;;4.07;;
41323;SDS011;27073;51.128;4.220;2022-11-20T16:28:07;16.33;;;3.97;;
41323;SDS011;27073;51.128;4.220;2022-11-20T16:30:33;15.73;;;4.55;;
41323;SDS011;27073;51.128;4.220;2022-11-20T16:32:59;13.73;;;4.13;;
41323;SDS011;27073;51.128;4.220;2022-11-20T16:35:26;19.27;;;4.40;;